createdAt,value
2022-11-22T00:02:00.208Z,3.33
2022-11-22T00:04:28.536Z,3.35
2022-11-22T00:06:56.800Z,3.36
2022-11-22T00:09:25.497Z,3.39
2022-11-22T00:11:54.757Z,3.42
2022-11-22T00:14:23.574Z,3.45
2022-11-22T00:16:57.728Z,3.46
2022-11-22T00:19:31.575Z,3.45
2022-11-22T00:22:04.330Z,3.44
2022-11-22T00:24:35.415Z,3.44
2022-11-22T00:27:03.790Z,3.46
2022-11-22T00:29:32.374Z,3.48
2022-11-22T00:32:00.866Z,3.51
2022-11-22T00:34:29.339Z,3.49
2022-11-22T00:36:57.720Z,3.50
2022-11-22T00:39:26.242Z,3.52
2022-11-22T00:41:54.687Z,3.52
2022-11-22T00:44:23.062Z,3.51
2022-11-22T00:46:51.538Z,3.51
2022-11-22T00:49:19.918Z,3.51
2022-11-22T00:51:48.300Z,3.50
2022-11-22T00:54:16.676Z,3.50
2022-11-22T00:56:45.037Z,3.45
2022-11-22T00:59:13.838Z,3.46
2022-11-22T01:01:42.432Z,3.44
2022-11-22T01:04:10.907Z,3.42
2022-11-22T01:06:39.706Z,3.40
2022-11-22T01:09:08.166Z,3.37
2022-11-22T01:11:36.423Z,3.32
2022-11-22T01:14:04.845Z,3.30
2022-11-22T01:16:33.119Z,3.27
2022-11-22T01:19:01.397Z,3.26
2022-11-22T01:21:29.578Z,3.26
2022-11-22T01:23:57.948Z,3.25
2022-11-22T01:26:26.562Z,3.26
2022-11-22T01:28:55.498Z,3.25
2022-11-22T01:31:23.684Z,3.23
2022-11-22T01:33:52.047Z,3.21
2022-11-22T01:36:21.040Z,3.18
2022-11-22T01:38:49.731Z,3.18
2022-11-22T01:41:18.093Z,3.16
2022-11-22T01:43:46.496Z,3.13
2022-11-22T01:46:37.507Z,3.11
2022-11-22T01:49:19.898Z,3.07
2022-11-22T01:51:51.463Z,3.04
2022-11-22T01:54:24.591Z,3.03
2022-11-22T01:56:58.887Z,3.00
2022-11-22T01:59:31.079Z,2.99
2022-11-22T02:02:01.322Z,2.98
2022-11-22T02:04:32.696Z,2.96
2022-11-22T02:07:13.640Z,2.94
2022-11-22T02:09:44.114Z,2.93
2022-11-22T02:12:13.795Z,2.92
2022-11-22T02:14:43.538Z,2.87
2022-11-22T02:17:11.739Z,2.94
2022-11-22T02:19:45.856Z,2.91
2022-11-22T02:22:35.802Z,2.92
2022-11-22T02:25:30.150Z,2.96
2022-11-22T02:27:59.486Z,3.01
2022-11-22T02:30:28.161Z,3.04
2022-11-22T02:32:56.659Z,3.07
2022-11-22T02:35:28.209Z,3.07
2022-11-22T02:38:06.412Z,3.05
2022-11-22T02:40:40.541Z,3.04
2022-11-22T02:43:14.511Z,3.02
2022-11-22T02:45:43.110Z,3.01
2022-11-22T02:48:14.324Z,2.99
2022-11-22T02:50:43.651Z,3.00
2022-11-22T02:53:12.572Z,2.99
2022-11-22T02:55:41.198Z,2.97
2022-11-22T02:58:09.731Z,2.95
2022-11-22T03:00:39.638Z,2.95
2022-11-22T03:03:07.977Z,2.93
2022-11-22T03:05:36.316Z,2.89
2022-11-22T03:08:04.526Z,2.87
2022-11-22T03:10:33.063Z,2.83
2022-11-22T03:13:01.441Z,2.80
2022-11-22T03:15:29.809Z,2.76
2022-11-22T03:18:02.297Z,2.73
2022-11-22T03:20:31.598Z,2.70
2022-11-22T03:23:03.348Z,2.70
2022-11-22T03:25:31.718Z,2.68
2022-11-22T03:28:00.110Z,2.67
2022-11-22T03:30:28.483Z,2.68
2022-11-22T03:32:56.753Z,2.69
2022-11-22T03:35:25.235Z,2.70
2022-11-22T03:37:53.711Z,2.71
2022-11-22T03:40:22.349Z,2.73
2022-11-22T03:42:50.630Z,2.73
2022-11-22T03:45:18.869Z,2.74
2022-11-22T03:47:47.033Z,2.73
2022-11-22T03:50:16.340Z,2.71
2022-11-22T03:52:44.537Z,2.70
2022-11-22T03:55:12.673Z,2.70
2022-11-22T03:57:40.951Z,2.67
2022-11-22T04:00:09.917Z,2.69
2022-11-22T04:02:40.126Z,2.68
2022-11-22T04:05:08.857Z,2.65
2022-11-22T04:07:37.271Z,2.62
2022-11-22T04:10:07.156Z,2.59
2022-11-22T04:12:35.927Z,2.59
2022-11-22T04:15:07.812Z,2.60
2022-11-22T04:17:41.408Z,2.58
2022-11-22T04:20:34.887Z,2.57
2022-11-22T04:23:10.437Z,2.57
2022-11-22T04:25:41.796Z,2.53
2022-11-22T04:28:11.790Z,2.48
2022-11-22T04:30:59.401Z,2.49
2022-11-22T04:33:28.141Z,2.49
2022-11-22T04:35:56.639Z,2.49
2022-11-22T04:38:25.093Z,2.48
2022-11-22T04:40:54.770Z,2.48
2022-11-22T04:43:47.936Z,2.46
2022-11-22T04:46:16.836Z,2.44
2022-11-22T04:48:45.205Z,2.46
2022-11-22T04:51:34.268Z,2.47
2022-11-22T04:54:03.043Z,2.48
2022-11-22T04:56:31.322Z,2.51
2022-11-22T04:58:59.490Z,2.54
2022-11-22T05:01:27.817Z,2.55
2022-11-22T05:03:56.255Z,2.56
2022-11-22T05:06:24.610Z,2.55
2022-11-22T05:08:52.891Z,2.52
2022-11-22T05:11:22.110Z,2.52
2022-11-22T05:13:50.807Z,2.52
2022-11-22T05:16:19.618Z,2.52
2022-11-22T05:18:59.623Z,2.55
2022-11-22T05:21:30.265Z,2.57
2022-11-22T05:23:59.058Z,2.58
2022-11-22T05:26:28.471Z,2.58
2022-11-22T05:29:00.581Z,2.61
2022-11-22T05:31:29.219Z,2.63
2022-11-22T05:33:57.877Z,2.62
2022-11-22T05:36:26.563Z,2.59
2022-11-22T05:38:55.372Z,2.60
2022-11-22T05:41:23.653Z,2.62
2022-11-22T05:43:55.613Z,2.59
2022-11-22T05:46:29.221Z,2.65
2022-11-22T05:48:59.789Z,2.68
2022-11-22T05:51:34.618Z,2.69
2022-11-22T05:54:05.034Z,2.72
2022-11-22T05:56:34.010Z,2.73
2022-11-22T05:59:02.485Z,2.73
2022-11-22T06:01:30.978Z,2.73
2022-11-22T06:03:59.430Z,2.71
2022-11-22T06:06:27.720Z,2.70
2022-11-22T06:08:57.169Z,2.72
2022-11-22T06:11:28.267Z,2.74
2022-11-22T06:14:03.642Z,2.77
2022-11-22T06:16:32.436Z,2.80
2022-11-22T06:19:01.289Z,2.82
2022-11-22T06:21:31.646Z,2.78
2022-11-22T06:24:00.702Z,2.85
2022-11-22T06:26:32.417Z,2.88
2022-11-22T06:29:04.945Z,2.89
2022-11-22T06:31:33.723Z,2.90
2022-11-22T06:34:02.830Z,2.90
2022-11-22T06:36:33.893Z,2.89
2022-11-22T06:39:05.418Z,2.85
2022-11-22T06:41:36.896Z,2.82
2022-11-22T06:44:07.380Z,2.78
2022-11-22T06:46:36.999Z,2.76
2022-11-22T06:49:06.829Z,2.76
2022-11-22T06:51:35.718Z,2.73
2022-11-22T06:54:05.196Z,2.68
2022-11-22T06:56:38.788Z,2.57
2022-11-22T06:59:10.669Z,2.46
2022-11-22T07:01:39.707Z,2.37
2022-11-22T07:04:09.399Z,2.32
2022-11-22T07:06:39.417Z,2.33
2022-11-22T07:09:12.725Z,2.32
2022-11-22T07:11:42.093Z,2.31
2022-11-22T07:14:11.815Z,2.32
2022-11-22T07:16:41.028Z,2.34
2022-11-22T07:19:11.053Z,2.38
2022-11-22T07:21:40.647Z,2.43
2022-11-22T07:24:11.991Z,2.47
2022-11-22T07:26:42.215Z,2.50
2022-11-22T07:29:11.023Z,2.52
2022-11-22T07:31:41.492Z,2.54
2022-11-22T07:34:11.138Z,2.55
2022-11-22T07:36:40.844Z,2.58
2022-11-22T07:39:10.307Z,2.61
2022-11-22T07:41:39.754Z,2.64
2022-11-22T07:44:08.442Z,2.66
2022-11-22T07:46:36.917Z,2.69
2022-11-22T07:49:05.829Z,2.74
2022-11-22T07:51:34.142Z,2.78
2022-11-22T07:54:06.397Z,2.82
2022-11-22T07:56:40.605Z,2.87
2022-11-22T07:59:09.948Z,2.90
2022-11-22T08:01:38.976Z,2.92
2022-11-22T08:04:07.312Z,2.94
2022-11-22T08:06:35.692Z,2.98
2022-11-22T08:09:13.026Z,3.00
2022-11-22T08:11:45.609Z,3.04
2022-11-22T08:14:18.531Z,3.09
2022-11-22T08:16:52.149Z,3.13
2022-11-22T08:19:20.932Z,3.19
2022-11-22T08:21:52.715Z,3.23
2022-11-22T08:24:25.675Z,3.27
2022-11-22T08:26:54.368Z,3.31
2022-11-22T08:29:23.486Z,3.34
2022-11-22T08:31:52.783Z,3.36
2022-11-22T08:34:21.861Z,3.38
2022-11-22T08:36:50.549Z,3.40
2022-11-22T08:39:19.440Z,3.43
2022-11-22T08:41:48.977Z,3.43
2022-11-22T08:44:17.527Z,3.38
2022-11-22T08:46:46.127Z,3.37
2022-11-22T08:49:14.801Z,3.39
2022-11-22T08:51:45.226Z,3.45
2022-11-22T08:54:15.448Z,3.50
2022-11-22T08:56:44.551Z,3.55
2022-11-22T08:59:13.227Z,3.61
2022-11-22T09:01:41.693Z,3.64
2022-11-22T09:04:10.927Z,3.66
2022-11-22T09:09:37.325Z,3.72
2022-11-22T09:12:07.160Z,3.76
2022-11-22T09:14:35.763Z,3.82
2022-11-22T09:17:06.076Z,3.84
2022-11-22T09:19:34.588Z,3.86
2022-11-22T09:22:03.066Z,3.86
2022-11-22T09:24:31.757Z,3.90
2022-11-22T09:27:00.203Z,3.92
2022-11-22T09:29:29.321Z,3.91
2022-11-22T09:31:59.943Z,3.97
2022-11-22T09:34:28.823Z,4.03
2022-11-22T09:36:57.636Z,4.02
2022-11-22T09:39:26.142Z,4.01
2022-11-22T09:42:19.770Z,3.98
2022-11-22T09:45:23.617Z,3.95
2022-11-22T09:48:10.603Z,3.94
2022-11-22T09:50:57.614Z,3.93
2022-11-22T09:53:36.417Z,3.89
2022-11-22T09:56:11.912Z,3.84
2022-11-22T09:58:51.803Z,3.74
2022-11-22T10:01:23.972Z,3.83
2022-11-22T10:03:55.991Z,3.86
2022-11-22T10:06:31.616Z,3.91
2022-11-22T10:09:11.641Z,3.97
2022-11-22T10:12:05.047Z,4.00
2022-11-22T10:15:03.712Z,4.00
2022-11-22T10:17:55.567Z,3.99
2022-11-22T10:20:30.107Z,3.95
2022-11-22T10:23:00.647Z,4.12
2022-11-22T10:25:44.983Z,4.11
2022-11-22T10:28:44.766Z,4.00
2022-11-22T10:31:37.149Z,3.99
2022-11-22T10:34:12.678Z,4.01
2022-11-22T10:37:24.335Z,4.07
2022-11-22T10:40:15.700Z,4.30
2022-11-22T10:43:15.010Z,4.32
2022-11-22T10:46:20.044Z,4.41
2022-11-22T10:49:40.139Z,4.43
2022-11-22T10:52:30.207Z,4.43
2022-11-22T10:55:22.519Z,4.43
2022-11-22T10:57:56.614Z,4.42
2022-11-22T11:00:26.659Z,4.43
2022-11-22T11:03:23.725Z,4.44
2022-11-22T11:06:43.461Z,4.46
2022-11-22T11:10:02.799Z,4.47
2022-11-22T11:11:55.397Z,4.54
2022-11-22T11:14:31.991Z,4.60
2022-11-22T11:17:01.680Z,4.63
2022-11-22T11:19:36.818Z,4.67
2022-11-22T11:22:08.356Z,4.70
2022-11-22T11:24:40.852Z,4.70
2022-11-22T11:27:11.766Z,4.70
2022-11-22T11:29:47.832Z,4.70
2022-11-22T11:32:20.039Z,4.69
2022-11-22T11:35:00.489Z,4.65
2022-11-22T11:37:37.263Z,4.62
2022-11-22T11:40:25.090Z,4.64
2022-11-22T11:43:18.961Z,4.67
2022-11-22T11:45:48.389Z,4.69
2022-11-22T11:48:27.288Z,4.72
2022-11-22T11:51:15.336Z,4.78
2022-11-22T11:53:53.844Z,4.83
2022-11-22T11:56:31.099Z,4.84
2022-11-22T11:59:03.909Z,4.89
2022-11-22T12:01:38.796Z,4.93
2022-11-22T12:04:23.724Z,4.95
2022-11-22T12:07:02.938Z,4.96
2022-11-22T12:09:45.256Z,4.98
2022-11-22T12:12:38.228Z,4.98
2022-11-22T12:15:19.804Z,4.94
2022-11-22T12:18:07.224Z,4.90
2022-11-22T12:21:02.951Z,4.90
2022-11-22T12:23:49.463Z,4.74
2022-11-22T12:26:21.242Z,4.82
2022-11-22T12:28:50.428Z,4.82
2022-11-22T12:31:40.300Z,4.83
2022-11-22T12:34:20.775Z,4.85
2022-11-22T12:37:06.191Z,4.86
2022-11-22T12:39:37.265Z,4.88
2022-11-22T12:42:22.684Z,4.90
2022-11-22T12:45:01.570Z,4.92
2022-11-22T12:47:37.640Z,4.93
2022-11-22T12:50:44.732Z,5.01
2022-11-22T12:53:15.877Z,5.07
2022-11-22T12:56:07.485Z,5.06
2022-11-22T12:58:54.405Z,5.10
2022-11-22T13:01:29.503Z,5.11
2022-11-22T13:04:09.894Z,5.13
2022-11-22T13:06:55.307Z,5.13
2022-11-22T13:09:36.470Z,5.15
2022-11-22T13:12:26.756Z,5.12
2022-11-22T13:14:59.227Z,5.10
2022-11-22T13:17:38.983Z,5.10
2022-11-22T13:20:20.974Z,5.11
2022-11-22T13:23:20.368Z,5.13
2022-11-22T13:26:17.229Z,5.14
2022-11-22T13:28:46.680Z,5.15
2022-11-22T13:31:18.977Z,5.16
2022-11-22T13:34:01.903Z,5.16
2022-11-22T13:36:30.803Z,5.15
2022-11-22T13:39:02.998Z,5.17
2022-11-22T13:41:42.077Z,5.18
2022-11-22T13:44:52.163Z,5.16
2022-11-22T13:47:23.925Z,5.11
2022-11-22T13:49:54.418Z,5.06
2022-11-22T13:52:25.898Z,5.03
2022-11-22T13:54:57.234Z,5.05
2022-11-22T13:57:42.997Z,5.09
2022-11-22T14:00:11.922Z,5.14
2022-11-22T14:02:51.735Z,5.24
2022-11-22T14:05:36.552Z,5.28
2022-11-22T14:08:31.680Z,5.34
2022-11-22T14:11:26.440Z,5.32
2022-11-22T14:14:47.176Z,5.38
2022-11-22T14:17:30.812Z,5.36
2022-11-22T14:20:21.087Z,5.31
2022-11-22T14:22:56.422Z,5.24
2022-11-22T14:26:01.322Z,5.21
2022-11-22T14:29:01.411Z,5.20
2022-11-22T14:31:36.692Z,5.28
2022-11-22T14:34:23.541Z,5.21
2022-11-22T14:37:10.973Z,5.23
2022-11-22T14:39:45.505Z,5.29
2022-11-22T14:42:36.186Z,5.33
2022-11-22T14:45:10.831Z,5.44
2022-11-22T14:48:02.264Z,5.35
2022-11-22T14:50:36.751Z,5.33
2022-11-22T14:53:30.112Z,5.32
2022-11-22T14:56:05.433Z,5.34
2022-11-22T14:58:39.698Z,5.38
2022-11-22T15:01:27.675Z,5.42
2022-11-22T15:09:13.693Z,5.46
2022-11-22T15:09:21.467Z,5.49
2022-11-22T15:09:54.399Z,5.58
2022-11-22T15:12:46.826Z,5.63
2022-11-22T15:59:44.989Z,5.67
2022-11-22T16:02:19.254Z,5.68
2022-11-22T16:06:05.252Z,5.68
2022-11-22T16:07:48.476Z,5.72
2022-11-22T16:10:20.272Z,5.76
2022-11-22T16:12:49.895Z,5.79
2022-11-22T16:15:28.825Z,5.83
2022-11-22T16:18:24.980Z,5.85
2022-11-22T16:21:29.098Z,5.87
2022-11-22T16:24:20.349Z,5.90
2022-11-22T16:27:15.480Z,5.88
2022-11-22T16:29:51.476Z,5.84
2022-11-22T16:32:20.354Z,5.87
2022-11-22T16:34:59.002Z,5.84
2022-11-22T16:37:47.857Z,5.84
2022-11-22T16:40:18.172Z,5.83
2022-11-22T16:42:47.480Z,5.86
2022-11-22T16:45:19.170Z,5.88
2022-11-22T16:47:58.644Z,5.90
2022-11-22T16:50:39.342Z,5.91
2022-11-22T16:53:17.140Z,5.85
2022-11-22T16:55:46.024Z,5.86
2022-11-22T16:58:21.202Z,5.88
2022-11-22T17:00:51.170Z,5.87
2022-11-22T17:03:27.566Z,5.88
2022-11-22T17:05:56.358Z,5.94
2022-11-22T17:08:25.143Z,5.93
2022-11-22T17:10:53.712Z,5.86
2022-11-22T17:13:28.533Z,5.79
2022-11-22T17:15:58.143Z,5.78
2022-11-22T17:18:26.617Z,5.77
2022-11-22T17:20:55.349Z,5.82
2022-11-22T17:23:36.176Z,5.82
2022-11-22T17:26:06.312Z,5.79
2022-11-22T17:28:35.713Z,5.71
2022-11-22T17:31:13.850Z,5.74
2022-11-22T17:33:49.981Z,5.65
2022-11-22T17:36:33.300Z,5.61
2022-11-22T17:39:06.303Z,5.60
2022-11-22T17:41:35.794Z,5.60
2022-11-22T17:44:06.612Z,5.59
2022-11-22T17:46:39.148Z,5.63
2022-11-22T17:49:14.119Z,5.64
2022-11-22T17:51:47.035Z,5.64
2022-11-22T17:54:16.326Z,5.62
2022-11-22T17:56:46.678Z,5.50
2022-11-22T17:59:15.314Z,5.61
2022-11-22T18:01:44.978Z,5.63
2022-11-22T18:04:14.969Z,5.62
2022-11-22T18:06:44.819Z,5.63
2022-11-22T18:09:14.691Z,5.67
2022-11-22T18:11:46.179Z,5.70
2022-11-22T18:14:18.898Z,5.68
2022-11-22T18:16:50.158Z,5.70
2022-11-22T18:19:20.296Z,5.75
2022-11-22T18:21:50.601Z,5.84
2022-11-22T18:24:20.403Z,5.83
2022-11-22T18:26:52.951Z,5.82
2022-11-22T18:29:41.773Z,5.79
2022-11-22T18:32:13.494Z,5.84
2022-11-22T18:34:44.675Z,5.87
2022-11-22T18:37:15.301Z,5.91
2022-11-22T18:39:45.269Z,5.95
2022-11-22T18:42:17.505Z,5.98
2022-11-22T18:44:47.710Z,6.01
2022-11-22T18:47:17.916Z,6.02
2022-11-22T18:49:49.460Z,6.02
2022-11-22T18:52:23.652Z,6.01
2022-11-22T18:54:57.153Z,5.99
2022-11-22T18:57:29.805Z,5.99
2022-11-22T19:00:00.302Z,5.99
2022-11-22T19:02:30.728Z,5.99
2022-11-22T19:05:02.925Z,5.98
2022-11-22T19:07:33.384Z,5.99
2022-11-22T19:10:02.941Z,5.98
2022-11-22T19:12:32.648Z,5.96
2022-11-22T19:15:01.441Z,5.95
2022-11-22T19:17:31.650Z,5.94
2022-11-22T19:20:00.848Z,5.94
2022-11-22T19:22:30.863Z,5.93
2022-11-22T19:24:59.749Z,5.92
2022-11-22T19:27:28.566Z,5.88
2022-11-22T19:29:58.224Z,5.88
2022-11-22T19:32:28.261Z,5.87
2022-11-22T19:34:57.063Z,5.85
2022-11-22T19:37:25.834Z,5.88
2022-11-22T19:39:54.680Z,5.87
2022-11-22T19:42:23.785Z,5.86
2022-11-22T19:44:52.620Z,5.86
2022-11-22T19:47:21.626Z,5.93
2022-11-22T19:49:51.319Z,5.90
2022-11-22T19:52:21.007Z,5.89
2022-11-22T19:54:51.424Z,5.90
2022-11-22T19:57:22.749Z,5.92
2022-11-22T19:59:59.909Z,5.90
2022-11-22T20:02:30.685Z,5.93
2022-11-22T20:05:00.376Z,5.94
2022-11-22T20:07:30.416Z,5.94
2022-11-22T20:09:59.952Z,5.90
2022-11-22T20:12:29.966Z,5.93
2022-11-22T20:14:59.083Z,5.91
2022-11-22T20:17:30.801Z,5.92
2022-11-22T20:20:01.137Z,5.94
2022-11-22T20:22:31.904Z,5.98
2022-11-22T20:25:02.646Z,5.98
2022-11-22T20:27:32.171Z,6.01
2022-11-22T20:30:01.848Z,6.00
2022-11-22T20:32:32.576Z,6.04
2022-11-22T20:35:02.286Z,6.08
2022-11-22T20:37:33.865Z,6.08
2022-11-22T20:40:05.246Z,6.03
2022-11-22T20:42:35.366Z,5.99
2022-11-22T20:45:09.323Z,5.97
2022-11-22T20:47:39.427Z,5.93
2022-11-22T20:50:09.689Z,5.82
2022-11-22T20:52:39.445Z,5.77
2022-11-22T20:55:11.074Z,5.70
2022-11-22T20:57:41.933Z,5.62
2022-11-22T21:00:12.711Z,5.54
2022-11-22T21:02:42.227Z,5.44
2022-11-22T21:05:12.520Z,5.35
2022-11-22T21:07:42.481Z,5.30
2022-11-22T21:10:12.786Z,5.27
2022-11-22T21:12:43.574Z,5.24
2022-11-22T21:15:16.031Z,5.20
2022-11-22T21:18:17.065Z,5.15
2022-11-22T21:20:37.548Z,5.17
2022-11-22T21:23:06.784Z,5.15
2022-11-22T21:25:36.595Z,5.16
2022-11-22T21:28:07.210Z,5.14
2022-11-22T21:30:37.285Z,5.15
2022-11-22T21:33:06.492Z,5.13
2022-11-22T21:35:37.653Z,5.12
2022-11-22T21:38:06.606Z,5.07
2022-11-22T21:40:35.705Z,5.12
2022-11-22T21:43:04.561Z,5.12
2022-11-22T21:45:34.003Z,5.17
2022-11-22T21:48:04.936Z,5.15
2022-11-22T21:50:33.631Z,5.14
2022-11-22T21:53:02.644Z,5.17
2022-11-22T21:55:31.500Z,5.16
2022-11-22T21:58:01.270Z,5.16
2022-11-22T22:00:30.000Z,5.15
2022-11-22T22:02:58.608Z,5.17
2022-11-22T22:05:27.394Z,5.16
2022-11-22T22:07:55.902Z,5.11
2022-11-22T22:10:24.440Z,5.08
2022-11-22T22:12:53.023Z,5.03
2022-11-22T22:15:22.635Z,4.97
2022-11-22T22:17:55.717Z,4.96
2022-11-22T22:20:24.520Z,4.95
2022-11-22T22:22:53.095Z,4.96
2022-11-22T22:25:21.981Z,4.98
2022-11-22T22:27:50.478Z,5.00
2022-11-22T22:30:23.346Z,5.03
2022-11-22T22:32:52.249Z,5.05
2022-11-22T22:35:21.618Z,5.06
2022-11-22T22:37:50.335Z,5.08
2022-11-22T22:40:21.781Z,5.10
2022-11-22T22:42:50.876Z,5.12
2022-11-22T22:45:20.511Z,5.14
2022-11-22T22:47:49.176Z,5.15
2022-11-22T22:50:17.883Z,5.16
2022-11-22T22:52:46.394Z,5.19
2022-11-22T22:55:14.720Z,5.21
2022-11-22T22:57:42.910Z,5.23
2022-11-22T23:00:12.088Z,5.26
2022-11-22T23:02:41.253Z,5.28
2022-11-22T23:05:09.881Z,5.28
2022-11-22T23:07:43.699Z,5.25
2022-11-22T23:10:12.357Z,5.23
2022-11-22T23:12:40.710Z,5.23
2022-11-22T23:15:09.421Z,5.23
2022-11-22T23:17:37.796Z,5.19
2022-11-22T23:20:06.692Z,5.18
2022-11-22T23:22:34.940Z,5.15
2022-11-22T23:25:03.455Z,5.11
2022-11-22T23:27:32.045Z,5.07
2022-11-22T23:30:00.416Z,5.05
2022-11-22T23:32:32.069Z,5.02
2022-11-22T23:35:00.565Z,4.99
2022-11-22T23:37:28.999Z,4.94
2022-11-22T23:39:57.313Z,4.90
2022-11-22T23:42:25.595Z,4.93
2022-11-22T23:44:54.273Z,4.95
2022-11-22T23:47:23.884Z,4.92
2022-11-22T23:49:52.248Z,4.89
2022-11-22T23:52:20.639Z,4.90
2022-11-22T23:54:48.986Z,4.91
2022-11-22T23:57:17.386Z,4.93
2022-11-22T23:59:45.885Z,4.95
